sensor_id;sensor_type;location;lat;lon;timestamp;pressure;altitude;pressure_sealevel;temperature;humidity
64835;BME280;51293;59.296;18.006;2022-10-16T00:00:56;100119.94;;;11.33;100.00
64835;BME280;51293;59.296;18.006;2022-10-16T00:03:21;100118.66;;;11.35;100.00
64835;BME280;51293;59.296;18.006;2022-10-16T00:05:47;100118.06;;;11.33;100.00
64835;BME280;51293;59.296;18.006;2022-10-16T00:08:12;100105.56;;;11.32;100.00
64835;BME280;51293;59.296;18.006;2022-10-16T00:10:39;100106.47;;;11.38;100.00
64835;BME280;51293;59.296;18.006;2022-10-16T00:13:05;100117.22;;;11.33;100.00
64835;BME280;51293;59.296;18.006;2022-10-16T00:15:33;100120.19;;;11.31;100.00
64835;BME280;51293;59.296;18.006;2022-10-16T00:18:01;100124.31;;;11.34;100.00
64835;BME280;51293;59.296;18.006;2022-10-16T00:20:27;100112.88;;;11.32;100.00
64835;BME280;51293;59.296;18.006;2022-10-16T00:22:52;100118.91;;;11.34;100.00
64835;BME280;51293;59.296;18.006;2022-10-16T00:25:17;100115.28;;;11.28;100.00
64835;BME280;51293;59.296;18.006;2022-10-16T00:27:43;100107.16;;;11.28;100.00
64835;BME280;51293;59.296;18.006;2022-10-16T00:30:08;100113.97;;;11.31;100.00
64835;BME280;51293;59.296;18.006;2022-10-16T00:32:34;100109.88;;;11.28;100.00
64835;BME280;51293;59.296;18.006;2022-10-16T00:34:59;100114.47;;;11.28;100.00
64835;BME280;51293;59.296;18.006;2022-10-16T00:37:24;100101.47;;;11.30;100.00
64835;BME280;51293;59.296;18.006;2022-10-16T00:39:50;100085.78;;;11.32;100.00
64835;BME280;51293;59.296;18.006;2022-10-16T00:42:17;100097.13;;;11.29;100.00
64835;BME280;51293;59.296;18.006;2022-10-16T00:44:55;100094.09;;;11.25;100.00
64835;BME280;51293;59.296;18.006;2022-10-16T00:47:29;100092.44;;;11.24;100.00
64835;BME280;51293;59.296;18.006;2022-10-16T00:50:13;100095.97;;;11.24;100.00
64835;BME280;51293;59.296;18.006;2022-10-16T00:52:43;100098.50;;;11.31;100.00
64835;BME280;51293;59.296;18.006;2022-10-16T00:55:09;100079.97;;;11.23;100.00
64835;BME280;51293;59.296;18.006;2022-10-16T00:57:36;100088.09;;;11.23;100.00
64835;BME280;51293;59.296;18.006;2022-10-16T01:00:04;100098.13;;;11.22;100.00
64835;BME280;51293;59.296;18.006;2022-10-16T01:02:30;100102.22;;;11.25;100.00
64835;BME280;51293;59.296;18.006;2022-10-16T01:04:55;100091.31;;;11.20;100.00
64835;BME280;51293;59.296;18.006;2022-10-16T01:10:13;100084.09;;;11.25;100.00
64835;BME280;51293;59.296;18.006;2022-10-16T01:12:55;100077.78;;;11.20;100.00
64835;BME280;51293;59.296;18.006;2022-10-16T01:15:48;100074.25;;;11.19;100.00
64835;BME280;51293;59.296;18.006;2022-10-16T01:18:30;100073.09;;;11.15;100.00
64835;BME280;51293;59.296;18.006;2022-10-16T01:21:02;100088.28;;;11.16;100.00
64835;BME280;51293;59.296;18.006;2022-10-16T01:28:56;100091.25;;;11.15;100.00
64835;BME280;51293;59.296;18.006;2022-10-16T01:31:26;100087.53;;;11.21;100.00
64835;BME280;51293;59.296;18.006;2022-10-16T01:34:28;100100.34;;;11.25;100.00
64835;BME280;51293;59.296;18.006;2022-10-16T01:37:02;100103.81;;;11.21;100.00
64835;BME280;51293;59.296;18.006;2022-10-16T01:39:30;100095.94;;;11.19;100.00
64835;BME280;51293;59.296;18.006;2022-10-16T01:42:06;100091.56;;;11.18;100.00
64835;BME280;51293;59.296;18.006;2022-10-16T01:44:34;100092.66;;;11.17;100.00
64835;BME280;51293;59.296;18.006;2022-10-16T01:47:02;100107.25;;;11.16;100.00
64835;BME280;51293;59.296;18.006;2022-10-16T01:49:30;100095.03;;;11.14;100.00
64835;BME280;51293;59.296;18.006;2022-10-16T01:51:59;100103.91;;;11.09;100.00
64835;BME280;51293;59.296;18.006;2022-10-16T01:54:28;100103.31;;;11.07;100.00
64835;BME280;51293;59.296;18.006;2022-10-16T01:56:56;100102.59;;;11.12;100.00
64835;BME280;51293;59.296;18.006;2022-10-16T01:59:25;100102.84;;;11.10;100.00
64835;BME280;51293;59.296;18.006;2022-10-16T02:01:55;100099.06;;;11.11;100.00
64835;BME280;51293;59.296;18.006;2022-10-16T02:04:28;100090.59;;;11.08;100.00
64835;BME280;51293;59.296;18.006;2022-10-16T02:06:55;100093.91;;;11.10;100.00
64835;BME280;51293;59.296;18.006;2022-10-16T02:09:21;100077.13;;;11.13;100.00
64835;BME280;51293;59.296;18.006;2022-10-16T02:11:46;100074.03;;;11.04;100.00
64835;BME280;51293;59.296;18.006;2022-10-16T02:14:14;100078.88;;;11.02;100.00
64835;BME280;51293;59.296;18.006;2022-10-16T02:16:45;100080.53;;;11.03;100.00
64835;BME280;51293;59.296;18.006;2022-10-16T02:19:12;100088.91;;;11.02;100.00
64835;BME280;51293;59.296;18.006;2022-10-16T02:22:05;100082.16;;;11.04;100.00
64835;BME280;51293;59.296;18.006;2022-10-16T02:25:02;100086.75;;;11.04;100.00
64835;BME280;51293;59.296;18.006;2022-10-16T02:27:55;100081.34;;;11.04;100.00
64835;BME280;51293;59.296;18.006;2022-10-16T02:30:30;100081.38;;;11.09;100.00
64835;BME280;51293;59.296;18.006;2022-10-16T02:32:58;100090.94;;;11.11;100.00
64835;BME280;51293;59.296;18.006;2022-10-16T02:35:26;100092.22;;;11.09;100.00
64835;BME280;51293;59.296;18.006;2022-10-16T02:37:53;100098.56;;;11.14;100.00
64835;BME280;51293;59.296;18.006;2022-10-16T02:40:20;100106.94;;;11.13;100.00
64835;BME280;51293;59.296;18.006;2022-10-16T02:42:50;100103.97;;;11.14;100.00
64835;BME280;51293;59.296;18.006;2022-10-16T02:45:16;100096.41;;;11.16;100.00
64835;BME280;51293;59.296;18.006;2022-10-16T02:47:41;100092.06;;;11.15;100.00
64835;BME280;51293;59.296;18.006;2022-10-16T02:50:07;100079.41;;;11.21;100.00
64835;BME280;51293;59.296;18.006;2022-10-16T02:52:32;100073.25;;;11.25;100.00
64835;BME280;51293;59.296;18.006;2022-10-16T02:54:58;100069.94;;;11.23;100.00
64835;BME280;51293;59.296;18.006;2022-10-16T02:57:23;100064.25;;;11.25;100.00
64835;BME280;51293;59.296;18.006;2022-10-16T02:59:49;100055.91;;;11.27;100.00
64835;BME280;51293;59.296;18.006;2022-10-16T03:02:14;100059.19;;;11.29;100.00
64835;BME280;51293;59.296;18.006;2022-10-16T03:04:39;100053.41;;;11.25;100.00
64835;BME280;51293;59.296;18.006;2022-10-16T03:07:05;100056.66;;;11.22;100.00
64835;BME280;51293;59.296;18.006;2022-10-16T03:09:30;100052.03;;;11.22;100.00
64835;BME280;51293;59.296;18.006;2022-10-16T03:11:56;100044.47;;;11.24;100.00
64835;BME280;51293;59.296;18.006;2022-10-16T03:14:21;100050.91;;;11.18;100.00
64835;BME280;51293;59.296;18.006;2022-10-16T03:16:46;100053.03;;;11.16;100.00
64835;BME280;51293;59.296;18.006;2022-10-16T03:19:12;100046.50;;;11.12;100.00
64835;BME280;51293;59.296;18.006;2022-10-16T03:21:37;100043.44;;;11.09;100.00
64835;BME280;51293;59.296;18.006;2022-10-16T03:24:03;100042.31;;;11.05;100.00
64835;BME280;51293;59.296;18.006;2022-10-16T03:26:29;100044.38;;;10.97;100.00
64835;BME280;51293;59.296;18.006;2022-10-16T03:28:54;100041.69;;;10.97;100.00
64835;BME280;51293;59.296;18.006;2022-10-16T03:31:19;100053.66;;;11.02;100.00
64835;BME280;51293;59.296;18.006;2022-10-16T03:33:45;100070.16;;;11.00;100.00
64835;BME280;51293;59.296;18.006;2022-10-16T03:36:10;100061.97;;;10.95;100.00
64835;BME280;51293;59.296;18.006;2022-10-16T03:38:35;100055.72;;;10.94;100.00
64835;BME280;51293;59.296;18.006;2022-10-16T03:41:01;100061.41;;;10.93;100.00
64835;BME280;51293;59.296;18.006;2022-10-16T03:43:26;100055.91;;;10.88;100.00
64835;BME280;51293;59.296;18.006;2022-10-16T03:45:52;100053.75;;;10.90;100.00
64835;BME280;51293;59.296;18.006;2022-10-16T03:48:18;100054.00;;;10.88;100.00
64835;BME280;51293;59.296;18.006;2022-10-16T03:50:43;100046.13;;;10.87;100.00
64835;BME280;51293;59.296;18.006;2022-10-16T03:53:09;100037.94;;;10.82;100.00
64835;BME280;51293;59.296;18.006;2022-10-16T03:55:35;100044.41;;;10.81;100.00
64835;BME280;51293;59.296;18.006;2022-10-16T03:58:00;100028.16;;;10.81;100.00
64835;BME280;51293;59.296;18.006;2022-10-16T04:00:26;100037.09;;;10.81;100.00
64835;BME280;51293;59.296;18.006;2022-10-16T04:02:52;100029.75;;;10.77;100.00
64835;BME280;51293;59.296;18.006;2022-10-16T04:05:17;100015.44;;;10.81;100.00
64835;BME280;51293;59.296;18.006;2022-10-16T04:07:43;100027.03;;;10.77;100.00
64835;BME280;51293;59.296;18.006;2022-10-16T04:10:08;100022.66;;;10.76;100.00
64835;BME280;51293;59.296;18.006;2022-10-16T04:12:33;100026.13;;;10.71;100.00
64835;BME280;51293;59.296;18.006;2022-10-16T04:14:59;100039.94;;;10.69;100.00
64835;BME280;51293;59.296;18.006;2022-10-16T04:17:24;100032.88;;;10.68;100.00
64835;BME280;51293;59.296;18.006;2022-10-16T04:19:49;100038.28;;;10.68;100.00
64835;BME280;51293;59.296;18.006;2022-10-16T04:22:15;100043.47;;;10.70;100.00
64835;BME280;51293;59.296;18.006;2022-10-16T04:24:40;100048.53;;;10.66;100.00
64835;BME280;51293;59.296;18.006;2022-10-16T04:27:05;100052.06;;;10.67;100.00
64835;BME280;51293;59.296;18.006;2022-10-16T04:29:31;100047.50;;;10.67;100.00
64835;BME280;51293;59.296;18.006;2022-10-16T04:31:56;100053.31;;;10.59;100.00
64835;BME280;51293;59.296;18.006;2022-10-16T04:34:22;100043.31;;;10.60;100.00
64835;BME280;51293;59.296;18.006;2022-10-16T04:36:48;100046.50;;;10.57;100.00
64835;BME280;51293;59.296;18.006;2022-10-16T04:39:16;100048.63;;;10.55;100.00
64835;BME280;51293;59.296;18.006;2022-10-16T04:41:42;100043.47;;;10.53;100.00
64835;BME280;51293;59.296;18.006;2022-10-16T04:44:07;100047.81;;;10.54;100.00
64835;BME280;51293;59.296;18.006;2022-10-16T04:46:33;100044.75;;;10.51;100.00
64835;BME280;51293;59.296;18.006;2022-10-16T04:48:59;100035.81;;;10.50;100.00
64835;BME280;51293;59.296;18.006;2022-10-16T04:51:24;100047.56;;;10.56;100.00
64835;BME280;51293;59.296;18.006;2022-10-16T04:53:50;100040.91;;;10.47;100.00
64835;BME280;51293;59.296;18.006;2022-10-16T04:56:16;100039.53;;;10.44;100.00
64835;BME280;51293;59.296;18.006;2022-10-16T04:58:41;100038.47;;;10.45;100.00
64835;BME280;51293;59.296;18.006;2022-10-16T05:01:07;100028.13;;;10.42;100.00
64835;BME280;51293;59.296;18.006;2022-10-16T05:03:32;100039.19;;;10.40;100.00
64835;BME280;51293;59.296;18.006;2022-10-16T05:05:57;100041.44;;;10.44;100.00
64835;BME280;51293;59.296;18.006;2022-10-16T05:08:23;100033.31;;;10.44;100.00
64835;BME280;51293;59.296;18.006;2022-10-16T05:10:48;100042.72;;;10.41;100.00
64835;BME280;51293;59.296;18.006;2022-10-16T05:13:14;100047.16;;;10.47;100.00
64835;BME280;51293;59.296;18.006;2022-10-16T05:15:39;100041.66;;;10.42;100.00
64835;BME280;51293;59.296;18.006;2022-10-16T05:18:04;100035.91;;;10.38;100.00
64835;BME280;51293;59.296;18.006;2022-10-16T05:20:30;100041.16;;;10.45;100.00
64835;BME280;51293;59.296;18.006;2022-10-16T05:22:55;100034.94;;;10.45;100.00
64835;BME280;51293;59.296;18.006;2022-10-16T05:25:20;100041.09;;;10.40;100.00
64835;BME280;51293;59.296;18.006;2022-10-16T05:27:49;100043.88;;;10.45;100.00
64835;BME280;51293;59.296;18.006;2022-10-16T05:30:16;100042.56;;;10.48;100.00
64835;BME280;51293;59.296;18.006;2022-10-16T05:32:45;100043.31;;;10.43;100.00
64835;BME280;51293;59.296;18.006;2022-10-16T05:35:11;100044.13;;;10.44;100.00
64835;BME280;51293;59.296;18.006;2022-10-16T05:37:36;100046.59;;;10.45;100.00
64835;BME280;51293;59.296;18.006;2022-10-16T05:40:02;100045.00;;;10.49;100.00
64835;BME280;51293;59.296;18.006;2022-10-16T05:42:30;100043.38;;;10.48;100.00
64835;BME280;51293;59.296;18.006;2022-10-16T05:44:55;100039.34;;;10.51;100.00
64835;BME280;51293;59.296;18.006;2022-10-16T05:47:20;100041.22;;;10.50;100.00
64835;BME280;51293;59.296;18.006;2022-10-16T05:49:46;100048.13;;;10.58;100.00
64835;BME280;51293;59.296;18.006;2022-10-16T05:52:11;100047.56;;;10.56;100.00
64835;BME280;51293;59.296;18.006;2022-10-16T05:54:37;100039.44;;;10.56;100.00
64835;BME280;51293;59.296;18.006;2022-10-16T05:57:02;100045.81;;;10.66;100.00
64835;BME280;51293;59.296;18.006;2022-10-16T05:59:27;100043.06;;;10.61;100.00
64835;BME280;51293;59.296;18.006;2022-10-16T06:01:53;100053.47;;;10.69;100.00
64835;BME280;51293;59.296;18.006;2022-10-16T06:04:18;100062.16;;;10.72;100.00
64835;BME280;51293;59.296;18.006;2022-10-16T06:06:44;100065.44;;;10.74;100.00
64835;BME280;51293;59.296;18.006;2022-10-16T06:09:09;100067.41;;;10.78;100.00
64835;BME280;51293;59.296;18.006;2022-10-16T06:11:35;100067.41;;;10.78;100.00
64835;BME280;51293;59.296;18.006;2022-10-16T06:14:02;100067.16;;;10.80;100.00
64835;BME280;51293;59.296;18.006;2022-10-16T06:16:31;100073.16;;;10.82;100.00
64835;BME280;51293;59.296;18.006;2022-10-16T06:18:57;100070.53;;;10.87;100.00
64835;BME280;51293;59.296;18.006;2022-10-16T06:21:25;100072.25;;;10.93;100.00
64835;BME280;51293;59.296;18.006;2022-10-16T06:23:51;100072.56;;;10.96;100.00
64835;BME280;51293;59.296;18.006;2022-10-16T06:26:19;100073.13;;;10.98;100.00
64835;BME280;51293;59.296;18.006;2022-10-16T06:28:44;100073.06;;;10.93;100.00
64835;BME280;51293;59.296;18.006;2022-10-16T06:31:11;100068.84;;;11.03;100.00
64835;BME280;51293;59.296;18.006;2022-10-16T06:33:38;100074.94;;;11.10;100.00
64835;BME280;51293;59.296;18.006;2022-10-16T06:36:05;100083.28;;;11.08;100.00
64835;BME280;51293;59.296;18.006;2022-10-16T06:38:31;100080.66;;;11.13;100.00
64835;BME280;51293;59.296;18.006;2022-10-16T06:40:57;100089.03;;;11.12;100.00
64835;BME280;51293;59.296;18.006;2022-10-16T06:43:23;100080.66;;;11.13;100.00
64835;BME280;51293;59.296;18.006;2022-10-16T06:45:56;100082.03;;;11.16;100.00
64835;BME280;51293;59.296;18.006;2022-10-16T06:48:23;100086.16;;;11.18;100.00
64835;BME280;51293;59.296;18.006;2022-10-16T06:53:24;100089.72;;;11.24;100.00
64835;BME280;51293;59.296;18.006;2022-10-16T06:55:49;100083.66;;;11.34;100.00
64835;BME280;51293;59.296;18.006;2022-10-16T06:58:15;100084.47;;;11.34;100.00
64835;BME280;51293;59.296;18.006;2022-10-16T07:00:40;100094.88;;;11.42;100.00
64835;BME280;51293;59.296;18.006;2022-10-16T07:03:06;100089.69;;;11.41;100.00
64835;BME280;51293;59.296;18.006;2022-10-16T07:05:31;100088.31;;;11.38;100.00
64835;BME280;51293;59.296;18.006;2022-10-16T07:07:56;100090.75;;;11.40;100.00
64835;BME280;51293;59.296;18.006;2022-10-16T07:10:22;100088.88;;;11.40;100.00
64835;BME280;51293;59.296;18.006;2022-10-16T07:12:49;100083.78;;;11.44;100.00
64835;BME280;51293;59.296;18.006;2022-10-16T07:15:15;100093.59;;;11.50;100.00
64835;BME280;51293;59.296;18.006;2022-10-16T07:17:40;100101.06;;;11.60;100.00
64835;BME280;51293;59.296;18.006;2022-10-16T07:20:06;100101.50;;;11.51;100.00
64835;BME280;51293;59.296;18.006;2022-10-16T07:22:31;100091.97;;;11.49;100.00
64835;BME280;51293;59.296;18.006;2022-10-16T07:24:57;100097.47;;;11.54;100.00
64835;BME280;51293;59.296;18.006;2022-10-16T07:27:23;100099.16;;;11.60;100.00
64835;BME280;51293;59.296;18.006;2022-10-16T07:29:49;100095.38;;;11.61;100.00
64835;BME280;51293;59.296;18.006;2022-10-16T07:32:14;100094.03;;;11.64;100.00
64835;BME280;51293;59.296;18.006;2022-10-16T07:34:40;100092.97;;;11.65;100.00
64835;BME280;51293;59.296;18.006;2022-10-16T07:37:05;100113.84;;;11.64;100.00
64835;BME280;51293;59.296;18.006;2022-10-16T07:39:30;100107.88;;;11.62;100.00
64835;BME280;51293;59.296;18.006;2022-10-16T07:41:56;100103.19;;;11.58;99.89
64835;BME280;51293;59.296;18.006;2022-10-16T07:44:21;100110.28;;;11.59;99.23
64835;BME280;51293;59.296;18.006;2022-10-16T07:46:47;100116.00;;;11.62;98.84
64835;BME280;51293;59.296;18.006;2022-10-16T07:49:12;100110.84;;;11.61;97.09
64835;BME280;51293;59.296;18.006;2022-10-16T07:51:37;100114.22;;;11.73;96.14
64835;BME280;51293;59.296;18.006;2022-10-16T07:54:08;100108.13;;;11.61;96.99
64835;BME280;51293;59.296;18.006;2022-10-16T07:56:34;100109.44;;;11.58;97.57
64835;BME280;51293;59.296;18.006;2022-10-16T07:58:59;100112.03;;;11.70;94.77
64835;BME280;51293;59.296;18.006;2022-10-16T08:01:25;100106.22;;;11.61;95.03
64835;BME280;51293;59.296;18.006;2022-10-16T08:03:51;100109.44;;;11.58;95.34
64835;BME280;51293;59.296;18.006;2022-10-16T08:06:17;100111.66;;;11.61;95.73
64835;BME280;51293;59.296;18.006;2022-10-16T08:08:43;100111.66;;;11.61;95.90
64835;BME280;51293;59.296;18.006;2022-10-16T08:11:09;100115.50;;;11.65;95.59
64835;BME280;51293;59.296;18.006;2022-10-16T08:13:35;100122.56;;;11.66;95.29
64835;BME280;51293;59.296;18.006;2022-10-16T08:16:00;100115.50;;;11.65;96.46
64835;BME280;51293;59.296;18.006;2022-10-16T08:18:26;100124.53;;;11.71;95.44
64835;BME280;51293;59.296;18.006;2022-10-16T08:20:56;100125.16;;;11.78;94.79
64835;BME280;51293;59.296;18.006;2022-10-16T08:23:23;100120.72;;;11.72;95.17
64835;BME280;51293;59.296;18.006;2022-10-16T08:25:51;100128.13;;;11.76;95.31
64835;BME280;51293;59.296;18.006;2022-10-16T08:28:16;100134.13;;;11.78;95.34
64835;BME280;51293;59.296;18.006;2022-10-16T08:30:42;100137.66;;;11.79;94.28
64835;BME280;51293;59.296;18.006;2022-10-16T08:33:07;100137.34;;;11.75;93.89
64835;BME280;51293;59.296;18.006;2022-10-16T08:35:33;100138.38;;;11.74;94.17
64835;BME280;51293;59.296;18.006;2022-10-16T08:37:58;100134.72;;;11.80;94.26
64835;BME280;51293;59.296;18.006;2022-10-16T08:40:26;100139.66;;;11.84;93.96
64835;BME280;51293;59.296;18.006;2022-10-16T08:43:24;100128.56;;;11.90;93.32
64835;BME280;51293;59.296;18.006;2022-10-16T08:46:33;100139.44;;;11.90;93.10
64835;BME280;51293;59.296;18.006;2022-10-16T08:49:02;100138.50;;;12.01;92.77
64835;BME280;51293;59.296;18.006;2022-10-16T08:51:35;100144.47;;;12.03;93.33
64835;BME280;51293;59.296;18.006;2022-10-16T08:54:08;100141.75;;;12.03;93.27
64835;BME280;51293;59.296;18.006;2022-10-16T08:56:40;100144.59;;;12.14;92.00
64835;BME280;51293;59.296;18.006;2022-10-16T08:59:10;100146.53;;;12.18;92.45
64835;BME280;51293;59.296;18.006;2022-10-16T09:01:46;100141.16;;;12.23;91.82
64835;BME280;51293;59.296;18.006;2022-10-16T09:07:17;100149.19;;;12.13;91.51
64835;BME280;51293;59.296;18.006;2022-10-16T09:23:47;100142.47;;;11.94;89.67
64835;BME280;51293;59.296;18.006;2022-10-16T09:26:14;100150.53;;;12.11;89.56
64835;BME280;51293;59.296;18.006;2022-10-16T09:28:40;100146.13;;;12.04;89.87
64835;BME280;51293;59.296;18.006;2022-10-16T09:31:13;100148.06;;;12.09;89.99
64835;BME280;51293;59.296;18.006;2022-10-16T09:33:40;100155.97;;;12.11;90.01
64835;BME280;51293;59.296;18.006;2022-10-16T09:36:09;100150.06;;;12.19;89.60
64835;BME280;51293;59.296;18.006;2022-10-16T09:38:37;100142.69;;;12.14;90.14
64835;BME280;51293;59.296;18.006;2022-10-16T09:41:20;100146.59;;;12.23;89.03
64835;BME280;51293;59.296;18.006;2022-10-16T09:43:53;100137.94;;;12.26;88.08
64835;BME280;51293;59.296;18.006;2022-10-16T09:46:34;100137.22;;;12.36;87.91
64835;BME280;51293;59.296;18.006;2022-10-16T09:49:05;100141.94;;;12.46;87.75
64835;BME280;51293;59.296;18.006;2022-10-16T09:51:35;100144.53;;;12.62;86.72
64835;BME280;51293;59.296;18.006;2022-10-16T09:54:13;100145.69;;;12.72;85.05
64835;BME280;51293;59.296;18.006;2022-10-16T09:56:39;100149.41;;;12.60;85.44
64835;BME280;51293;59.296;18.006;2022-10-16T09:59:17;100136.38;;;12.62;84.98
64835;BME280;51293;59.296;18.006;2022-10-16T10:01:46;100140.47;;;12.65;84.89
64835;BME280;51293;59.296;18.006;2022-10-16T10:04:12;100138.00;;;12.63;84.43
64835;BME280;51293;59.296;18.006;2022-10-16T10:06:44;100132.31;;;12.65;84.14
64835;BME280;51293;59.296;18.006;2022-10-16T10:09:26;100134.31;;;12.75;84.23
64835;BME280;51293;59.296;18.006;2022-10-16T10:12:03;100140.44;;;12.92;83.61
64835;BME280;51293;59.296;18.006;2022-10-16T10:14:37;100139.47;;;13.08;83.31
64835;BME280;51293;59.296;18.006;2022-10-16T10:17:21;100142.06;;;13.25;82.27
64835;BME280;51293;59.296;18.006;2022-10-16T10:20:14;100143.56;;;13.11;81.78
64835;BME280;51293;59.296;18.006;2022-10-16T10:22:44;100152.31;;;13.18;81.20
64835;BME280;51293;59.296;18.006;2022-10-16T10:38:52;100141.81;;;12.94;80.93
64835;BME280;51293;59.296;18.006;2022-10-16T10:52:32;100141.31;;;13.40;76.04
64835;BME280;51293;59.296;18.006;2022-10-16T11:06:12;100133.63;;;13.27;74.02
64835;BME280;51293;59.296;18.006;2022-10-16T11:08:51;100132.81;;;13.31;74.86
64835;BME280;51293;59.296;18.006;2022-10-16T11:11:24;100133.94;;;13.35;75.33
64835;BME280;51293;59.296;18.006;2022-10-16T11:13:57;100126.06;;;13.39;74.85
64835;BME280;51293;59.296;18.006;2022-10-16T11:16:28;100117.91;;;13.34;74.20
64835;BME280;51293;59.296;18.006;2022-10-16T11:19:01;100123.03;;;13.25;75.33
64835;BME280;51293;59.296;18.006;2022-10-16T11:21:30;100111.59;;;13.28;75.44
64835;BME280;51293;59.296;18.006;2022-10-16T11:24:04;100107.81;;;13.29;75.29
64835;BME280;51293;59.296;18.006;2022-10-16T11:26:34;100104.31;;;13.39;75.38
64835;BME280;51293;59.296;18.006;2022-10-16T11:29:04;100104.34;;;13.44;75.89
64835;BME280;51293;59.296;18.006;2022-10-16T11:31:46;100107.66;;;13.56;74.22
64835;BME280;51293;59.296;18.006;2022-10-16T11:34:22;100098.44;;;13.57;75.14
64835;BME280;51293;59.296;18.006;2022-10-16T11:36:56;100105.50;;;13.63;72.51
64835;BME280;51293;59.296;18.006;2022-10-16T11:39:27;100099.44;;;13.46;73.54
64835;BME280;51293;59.296;18.006;2022-10-16T11:41:54;100105.41;;;13.38;74.29
64835;BME280;51293;59.296;18.006;2022-10-16T11:46:52;100093.06;;;13.20;73.64
64835;BME280;51293;59.296;18.006;2022-10-16T11:49:25;100085.09;;;13.08;74.85
64835;BME280;51293;59.296;18.006;2022-10-16T11:52:03;100088.25;;;12.95;75.14
64835;BME280;51293;59.296;18.006;2022-10-16T11:54:47;100089.88;;;12.91;75.40
64835;BME280;51293;59.296;18.006;2022-10-16T11:57:24;100084.69;;;12.89;76.52
64835;BME280;51293;59.296;18.006;2022-10-16T11:59:56;100074.13;;;12.98;76.33
64835;BME280;51293;59.296;18.006;2022-10-16T12:08:13;100063.81;;;13.47;75.25
64835;BME280;51293;59.296;18.006;2022-10-16T12:10:45;100059.75;;;13.50;74.97
64835;BME280;51293;59.296;18.006;2022-10-16T12:13:37;100057.63;;;13.62;75.14
64835;BME280;51293;59.296;18.006;2022-10-16T12:18:46;100057.59;;;13.52;76.17
64835;BME280;51293;59.296;18.006;2022-10-16T12:21:14;100049.69;;;13.51;76.66
64835;BME280;51293;59.296;18.006;2022-10-16T12:23:53;100040.69;;;13.45;77.33
64835;BME280;51293;59.296;18.006;2022-10-16T12:26:43;100038.56;;;13.57;76.89
64835;BME280;51293;59.296;18.006;2022-10-16T12:29:22;100031.75;;;13.49;77.00
64835;BME280;51293;59.296;18.006;2022-10-16T12:31:49;100025.38;;;13.29;77.20
64835;BME280;51293;59.296;18.006;2022-10-16T12:37:18;100028.34;;;13.22;78.44
64835;BME280;51293;59.296;18.006;2022-10-16T12:39:45;100029.19;;;13.28;77.89
64835;BME280;51293;59.296;18.006;2022-10-16T12:42:33;100040.06;;;13.28;77.57
64835;BME280;51293;59.296;18.006;2022-10-16T12:44:59;100020.38;;;13.10;77.74
64835;BME280;51293;59.296;18.006;2022-10-16T12:49:57;100016.31;;;13.08;77.28
64835;BME280;51293;59.296;18.006;2022-10-16T12:54:56;100016.94;;;13.20;77.03
64835;BME280;51293;59.296;18.006;2022-10-16T13:00:22;100010.94;;;13.23;76.79
64835;BME280;51293;59.296;18.006;2022-10-16T13:03:19;99999.81;;;13.25;76.99
64835;BME280;51293;59.296;18.006;2022-10-16T13:11:20;99995.09;;;13.10;77.69
64835;BME280;51293;59.296;18.006;2022-10-16T13:16:36;99986.78;;;13.32;77.17
64835;BME280;51293;59.296;18.006;2022-10-16T13:22:34;99978.50;;;13.99;74.30
64835;BME280;51293;59.296;18.006;2022-10-16T13:25:20;99977.69;;;14.04;73.22
64835;BME280;51293;59.296;18.006;2022-10-16T13:28:05;99973.31;;;14.39;72.20
64835;BME280;51293;59.296;18.006;2022-10-16T13:30:36;99968.44;;;14.41;71.29
64835;BME280;51293;59.296;18.006;2022-10-16T13:33:33;99967.34;;;14.47;71.36
64835;BME280;51293;59.296;18.006;2022-10-16T13:35:58;99975.22;;;14.69;70.48
64835;BME280;51293;59.296;18.006;2022-10-16T13:38:32;99979.56;;;14.75;69.79
64835;BME280;51293;59.296;18.006;2022-10-16T13:41:00;99964.28;;;14.84;68.85
64835;BME280;51293;59.296;18.006;2022-10-16T13:43:35;99964.19;;;15.04;68.98
64835;BME280;51293;59.296;18.006;2022-10-16T13:46:21;99954.47;;;14.83;68.37
64835;BME280;51293;59.296;18.006;2022-10-16T13:49:02;99940.59;;;14.64;69.23
64835;BME280;51293;59.296;18.006;2022-10-16T13:51:28;99958.03;;;14.63;69.22
64835;BME280;51293;59.296;18.006;2022-10-16T13:53:56;99963.25;;;14.49;69.29
64835;BME280;51293;59.296;18.006;2022-10-16T13:56:26;99938.47;;;14.46;69.84
64835;BME280;51293;59.296;18.006;2022-10-16T13:59:06;99941.44;;;14.39;70.18
64835;BME280;51293;59.296;18.006;2022-10-16T14:01:47;99950.44;;;14.14;70.79
64835;BME280;51293;59.296;18.006;2022-10-16T14:04:13;99950.19;;;13.90;71.43
64835;BME280;51293;59.296;18.006;2022-10-16T14:06:42;99950.72;;;13.77;72.49
64835;BME280;51293;59.296;18.006;2022-10-16T14:09:23;99947.16;;;13.71;72.50
64835;BME280;51293;59.296;18.006;2022-10-16T14:11:58;99956.94;;;13.52;73.17
64835;BME280;51293;59.296;18.006;2022-10-16T14:14:24;99956.09;;;13.41;73.95
64835;BME280;51293;59.296;18.006;2022-10-16T14:16:52;99947.38;;;13.34;74.32
64835;BME280;51293;59.296;18.006;2022-10-16T14:19:28;99937.28;;;13.30;74.76
64835;BME280;51293;59.296;18.006;2022-10-16T14:21:55;99940.00;;;13.25;75.30
64835;BME280;51293;59.296;18.006;2022-10-16T14:26:55;99942.03;;;12.97;76.28